Time;durP1;ratioP1;P1;durP2;ratioP2;P2;SDS_P1;SDS_P2;PMS_P1;PMS_P2;Temp;Humidity;BMP_temperature;BMP_pressure;BME280_temperature;BME280_humidity;BME280_pressure;Samples;Min_cycle;Max_cycle;Signal;HPM_P1;HPM_P2
2022/10/18 00:03:10;;;;;;;8.43;6.32;;;;;;;23.02;55.96;101764.13;20638467;28;20045;-75
2022/10/18 00:13:11;;;;;;;9.20;7.00;;;;;;;22.99;56.18;101757.25;20634525;28;20069;-77
2022/10/18 00:23:11;;;;;;;8.57;6.47;;;;;;;22.98;56.22;101744.97;20647234;28;20046;-76
2022/10/18 00:33:11;;;;;;;9.68;6.50;;;;;;;22.97;56.28;101740.66;20641592;28;20562;-76
2022/10/18 00:43:14;;;;;;;9.48;6.20;;;;;;;22.96;56.12;101735.44;20654142;28;20046;-75
2022/10/18 00:53:21;;;;;;;7.95;6.18;;;;;;;22.95;56.19;101728.47;20648636;28;20152;-75
2022/10/18 01:03:21;;;;;;;9.35;6.25;;;;;;;22.94;56.08;101729.44;20652322;28;20576;-76
2022/10/18 01:14:09;;;;;;;8.20;6.18;;;;;;;22.92;55.96;101721.59;20633046;28;20076;-75
2022/10/18 01:24:27;;;;;;;8.05;5.90;;;;;;;22.91;56.33;101705.84;20657643;28;20079;-75
2022/10/18 01:34:32;;;;;;;10.15;6.38;;;;;;;22.88;56.65;101696.34;20640322;28;20037;-76
2022/10/18 01:44:35;;;;;;;7.00;5.78;;;;;;;22.84;56.12;101689.56;20649329;28;20057;-75
2022/10/18 01:54:38;;;;;;;7.32;5.75;;;;;;;22.84;56.28;101684.28;20642161;28;20042;-75
2022/10/18 02:04:58;;;;;;;7.95;6.00;;;;;;;22.82;56.17;101671.16;20640017;28;20099;-76
2022/10/18 02:15:05;;;;;;;7.55;5.60;;;;;;;22.80;56.15;101664.28;20639656;28;20060;-75
2022/10/18 02:25:10;;;;;;;7.78;6.15;;;;;;;22.78;56.03;101671.47;20641776;28;20053;-75
2022/10/18 02:35:18;;;;;;;7.13;5.45;;;;;;;22.78;55.90;101674.94;20640672;28;20042;-75
2022/10/18 02:45:18;;;;;;;9.30;6.47;;;;;;;22.77;56.27;101677.69;20649008;28;20129;-76
2022/10/18 02:55:19;;;;;;;10.90;6.18;;;;;;;22.73;55.87;101666.47;20645607;28;20042;-76
2022/10/18 03:05:19;;;;;;;7.32;5.88;;;;;;;22.74;56.13;101675.25;20626522;28;20151;-75
2022/10/18 03:15:20;;;;;;;8.25;6.03;;;;;;;22.69;56.23;101676.38;20644052;28;20153;-75
2022/10/18 03:25:20;;;;;;;6.93;5.25;;;;;;;22.68;56.18;101687.88;20640880;28;20037;-75
2022/10/18 03:35:21;;;;;;;6.40;5.55;;;;;;;22.68;55.98;101684.41;20640706;28;20048;-75
2022/10/18 03:45:21;;;;;;;6.40;5.70;;;;;;;22.67;55.72;101683.56;20641743;28;20042;-76
2022/10/18 03:55:23;;;;;;;7.10;5.40;;;;;;;22.69;56.25;101692.22;20644565;28;20476;-76
2022/10/18 04:05:25;;;;;;;16.27;5.97;;;;;;;22.68;55.42;101687.06;20632778;28;20050;-76
2022/10/18 04:15:26;;;;;;;8.35;5.00;;;;;;;22.68;56.42;101676.50;20627747;28;20905;-74
2022/10/18 04:25:28;;;;;;;9.15;5.95;;;;;;;22.70;57.29;101680.72;20639708;28;20038;-76
2022/10/18 04:35:28;;;;;;;11.50;6.17;;;;;;;22.72;57.37;101670.06;20640401;28;20615;-78
2022/10/18 04:45:29;;;;;;;18.80;6.82;;;;;;;22.70;56.95;101664.88;20648491;28;20046;-77
2022/10/18 04:55:30;;;;;;;13.07;6.55;;;;;;;22.70;56.91;101649.03;20644484;28;20050;-76
2022/10/18 05:05:30;;;;;;;19.33;6.82;;;;;;;22.70;56.81;101648.19;20660912;28;20047;-75
2022/10/18 05:15:31;;;;;;;21.35;8.43;;;;;;;22.63;54.25;101652.16;20648350;28;20066;-78
2022/10/18 05:25:31;;;;;;;23.27;8.10;;;;;;;22.62;55.39;101651.31;20659822;28;20081;-74
2022/10/18 05:35:32;;;;;;;21.75;8.68;;;;;;;22.60;55.69;101652.38;20666697;28;20501;-73
2022/10/18 05:45:32;;;;;;;24.05;8.20;;;;;;;22.59;56.12;101661.22;20659877;28;20047;-73
2022/10/18 05:55:33;;;;;;;24.88;9.10;;;;;;;22.55;56.40;101650.84;20662247;28;20045;-73
2022/10/18 06:05:33;;;;;;;19.58;8.38;;;;;;;22.54;56.62;101665.00;20668791;28;20117;-73
2022/10/18 06:15:33;;;;;;;19.08;8.38;;;;;;;22.53;56.31;101667.72;20662751;28;20046;-73
2022/10/18 06:25:34;;;;;;;18.52;8.18;;;;;;;22.53;56.76;101678.28;20670233;28;20499;-74
2022/10/18 06:35:34;;;;;;;18.95;8.27;;;;;;;22.54;56.80;101687.91;20663311;28;20042;-74
2022/10/18 06:45:34;;;;;;;17.33;7.53;;;;;;;22.55;57.17;101684.34;20651881;28;20047;-74
2022/10/18 06:55:35;;;;;;;19.60;7.60;;;;;;;22.54;56.66;101682.63;20633857;28;20118;-74
2022/10/18 07:05:35;;;;;;;23.83;8.32;;;;;;;22.57;57.33;101700.06;20663214;28;20468;-73
2022/10/18 07:15:37;;;;;;;17.17;6.95;;;;;;;22.58;57.35;101692.03;20656770;28;20061;-73
2022/10/18 07:25:37;;;;;;;16.05;7.63;;;;;;;22.58;57.13;101680.66;20646700;28;20077;-73
2022/10/18 07:35:37;;;;;;;14.05;6.95;;;;;;;22.60;57.13;101657.66;20636339;28;20050;-72
2022/10/18 07:45:38;;;;;;;11.65;6.63;;;;;;;22.62;57.04;101659.25;20627182;28;20050;-72
2022/10/18 07:55:38;;;;;;;12.25;6.80;;;;;;;22.62;56.87;101656.59;20642720;28;20042;-73
2022/10/18 08:05:39;;;;;;;12.95;6.95;;;;;;;22.62;56.54;101642.53;20647929;28;20463;-73
2022/10/18 08:15:39;;;;;;;11.63;6.65;;;;;;;22.64;56.65;101635.38;20641373;28;20069;-73
2022/10/18 08:25:40;;;;;;;11.00;5.97;;;;;;;22.67;56.63;101625.47;20642834;28;20054;-72
2022/10/18 08:35:40;;;;;;;12.95;6.50;;;;;;;22.67;56.52;101612.25;20652417;28;20046;-73
2022/10/18 08:45:43;;;;;;;10.90;6.15;;;;;;;22.73;56.73;101602.25;20682344;28;20053;-76
2022/10/18 08:55:51;;;;;;;13.95;6.13;;;;;;;22.78;56.73;101589.63;20671720;28;20030;-76
2022/10/18 09:05:55;;;;;;;13.23;6.57;;;;;;;22.81;56.76;101576.19;20680438;28;20046;-77
2022/10/18 09:16:04;;;;;;;10.98;6.30;;;;;;;22.87;56.60;101567.88;20677185;28;20089;-76
2022/10/18 09:26:19;;;;;;;11.43;6.43;;;;;;;22.90;56.50;101557.13;20696636;28;20413;-76
2022/10/18 09:36:23;;;;;;;10.05;6.03;;;;;;;22.93;56.58;101548.97;20679222;28;20073;-77
2022/10/18 09:46:29;;;;;;;9.45;5.80;;;;;;;22.98;56.25;101538.94;20665934;28;20046;-75
2022/10/18 09:56:37;;;;;;;11.88;6.40;;;;;;;22.87;49.37;101522.97;20663107;28;20041;-77
2022/10/18 10:06:49;;;;;;;8.13;4.95;;;;;;;22.98;52.99;101515.16;20650245;28;20046;-78
2022/10/18 10:17:02;;;;;;;9.03;5.60;;;;;;;23.07;53.60;101502.28;20662743;28;20124;-76
2022/10/18 10:27:12;;;;;;;7.97;5.20;;;;;;;23.12;54.09;101481.69;20673421;28;20591;-77
2022/10/18 10:37:34;;;;;;;8.50;5.18;;;;;;;23.20;54.21;101471.47;20677186;28;20069;-76
2022/10/18 10:47:35;;;;;;;;;;;;;;;23.28;54.29;101457.75;20654069;28;20042;-76
2022/10/18 10:57:36;;;;;;;8.30;4.72;;;;;;;23.34;54.34;101437.00;20670716;28;19929;-76
2022/10/18 11:07:43;;;;;;;9.85;5.20;;;;;;;23.42;54.11;101439.09;20673619;28;20496;-76
2022/10/18 11:18:07;;;;;;;8.73;5.18;;;;;;;23.50;54.30;101412.16;20670638;28;20044;-76
2022/10/18 11:28:11;;;;;;;6.78;4.70;;;;;;;23.58;53.92;101401.00;20661921;28;20046;-77
2022/10/18 11:38:29;;;;;;;4.85;4.00;;;;;;;23.66;54.03;101385.44;20663520;28;20053;-77
2022/10/18 11:48:33;;;;;;;8.25;4.32;;;;;;;23.74;54.26;101375.16;20668998;28;20062;-77
2022/10/18 11:58:57;;;;;;;6.25;4.10;;;;;;;23.82;54.11;101345.50;20639920;28;20062;-77
2022/10/18 12:09:06;;;;;;;5.18;3.95;;;;;;;23.88;53.81;101326.53;20631233;28;20120;-77
2022/10/18 12:19:20;;;;;;;10.50;4.15;;;;;;;23.96;53.65;101325.97;20661947;28;20595;-77
2022/10/18 12:29:57;;;;;;;5.25;4.13;;;;;;;24.03;54.01;101303.41;20669911;28;20501;-78
2022/10/18 12:40:02;;;;;;;6.38;3.78;;;;;;;24.07;52.80;101301.38;20663891;28;20046;-78
2022/10/18 12:50:06;;;;;;;6.93;3.55;;;;;;;24.08;50.83;101271.31;20673206;28;20072;-77
2022/10/18 13:00:29;;;;;;;6.97;4.13;;;;;;;24.13;49.25;101255.91;20668716;28;20038;-78
2022/10/18 13:10:35;;;;;;;5.57;3.70;;;;;;;24.17;48.71;101251.25;20668050;28;20042;-78
2022/10/18 13:20:51;;;;;;;5.10;3.72;;;;;;;24.20;48.42;101235.13;20664766;28;20061;-77
2022/10/18 13:31:26;;;;;;;4.28;3.35;;;;;;;24.23;47.99;101233.09;20659660;28;20042;-77
2022/10/18 13:41:30;;;;;;;5.20;3.50;;;;;;;24.26;47.33;101232.00;20670180;28;20057;-76
2022/10/18 13:52:00;;;;;;;7.50;3.42;;;;;;;24.25;47.06;101230.31;20674695;28;20073;-78
2022/10/18 14:02:22;;;;;;;4.85;3.17;;;;;;;24.23;46.20;101214.56;20659908;28;20041;-78
2022/10/18 14:12:46;;;;;;;8.57;3.20;;;;;;;24.23;45.90;101200.47;20653247;28;20172;-77
2022/10/18 14:23:11;;;;;;;10.32;3.63;;;;;;;24.22;46.22;101194.38;20639623;28;20069;-79
2022/10/18 14:33:43;;;;;;;5.13;3.30;;;;;;;24.22;46.04;101177.66;20640407;28;20038;-78
2022/10/18 14:43:45;;;;;;;7.47;2.95;;;;;;;24.14;46.12;101171.16;20645427;28;20061;-77
2022/10/18 14:53:47;;;;;;;6.63;3.08;;;;;;;24.03;44.97;101160.53;20659112;28;20038;-77
2022/10/18 15:04:03;;;;;;;7.63;3.30;;;;;;;23.93;42.24;101154.28;20834545;27;20131;-74
2022/10/18 15:14:07;;;;;;;4.78;3.08;;;;;;;23.83;41.31;101147.03;20957331;27;20130;-74
2022/10/18 15:24:27;;;;;;;7.28;3.67;;;;;;;23.73;40.80;101139.91;20982137;27;20071;-74
2022/10/18 15:34:28;;;;;;;6.22;3.58;;;;;;;23.60;40.16;101121.50;20972151;27;20392;-74
2022/10/18 15:44:50;;;;;;;14.95;5.72;;;;;;;23.48;38.49;101139.97;20956440;27;20132;-73
2022/10/18 15:54:50;;;;;;;14.38;4.60;;;;;;;23.43;41.18;101122.78;20935448;27;20058;-78
2022/10/18 16:04:50;;;;;;;13.15;4.30;;;;;;;23.45;43.53;101129.66;20962119;27;20032;-77
2022/10/18 16:14:51;;;;;;;8.90;4.07;;;;;;;23.43;45.29;101114.88;20897970;28;20108;-76
2022/10/18 16:24:51;;;;;;;12.98;4.25;;;;;;;23.43;46.58;101115.69;20907451;27;20778;-77
2022/10/18 16:34:52;;;;;;;16.45;4.13;;;;;;;23.46;47.61;101122.53;20901295;28;20068;-78
2022/10/18 16:44:53;;;;;;;7.03;4.35;;;;;;;23.45;48.76;101134.09;20883625;28;20043;-79
2022/10/18 16:54:54;;;;;;;8.77;4.20;;;;;;;23.45;49.63;101136.75;20884087;27;20468;-79
2022/10/18 17:04:54;;;;;;;9.88;4.13;;;;;;;23.43;49.21;101134.19;20896716;27;20278;-78
2022/10/18 17:14:54;;;;;;;6.88;4.50;;;;;;;23.45;50.74;101127.00;20908926;28;20048;-77
2022/10/18 17:24:55;;;;;;;11.85;4.10;;;;;;;23.45;51.02;101139.38;20917299;27;20047;-78
2022/10/18 17:34:55;;;;;;;8.90;4.35;;;;;;;23.43;51.33;101138.66;20919888;27;20044;-80
2022/10/18 17:44:56;;;;;;;10.00;4.22;;;;;;;23.44;52.08;101127.13;20920076;28;20102;-75
2022/10/18 17:54:56;;;;;;;12.52;4.43;;;;;;;23.42;51.86;101118.47;20912468;28;20043;-76
2022/10/18 18:04:56;;;;;;;7.30;4.50;;;;;;;23.37;52.36;101108.22;20904159;28;20121;-75
2022/10/18 18:14:57;;;;;;;7.20;3.80;;;;;;;23.38;52.37;101117.00;20919686;27;20048;-79
2022/10/18 18:24:58;;;;;;;7.03;4.28;;;;;;;23.40;52.40;101109.78;20939042;27;20124;-79
2022/10/18 18:34:58;;;;;;;9.32;4.38;;;;;;;23.36;52.83;101105.72;20918036;28;20080;-78
2022/10/18 18:44:59;;;;;;;9.02;3.92;;;;;;;23.34;52.68;101109.31;20913101;27;20048;-77
2022/10/18 18:54:59;;;;;;;9.98;4.38;;;;;;;23.33;52.75;101093.56;20895291;28;20045;-78
2022/10/18 19:05:00;;;;;;;9.63;4.47;;;;;;;23.31;52.57;101084.91;20903212;27;20029;-76
2022/10/18 19:15:00;;;;;;;13.07;5.13;;;;;;;23.23;52.63;101077.56;20876818;28;20051;-76
2022/10/18 19:25:00;;;;;;;10.05;5.38;;;;;;;23.22;52.53;101089.09;20894755;28;20037;-76
2022/10/18 19:35:01;;;;;;;8.45;5.18;;;;;;;23.19;52.53;101081.38;20916682;28;20104;-77
2022/10/18 19:45:02;;;;;;;11.18;5.60;;;;;;;23.15;52.54;101080.75;20915420;28;20082;-76
2022/10/18 19:55:03;;;;;;;8.82;5.05;;;;;;;23.12;52.43;101072.19;20925663;28;20044;-76
2022/10/18 20:05:03;;;;;;;8.60;5.18;;;;;;;23.10;52.48;101076.78;20918544;28;20048;-76
2022/10/18 20:15:04;;;;;;;8.40;5.38;;;;;;;23.07;52.60;101064.66;20911237;28;20533;-76
2022/10/18 20:25:05;;;;;;;9.38;5.25;;;;;;;23.03;52.71;101044.69;20922078;27;20040;-75
2022/10/18 20:35:05;;;;;;;9.20;5.05;;;;;;;23.02;52.78;101056.19;20918593;28;20053;-75
2022/10/18 20:45:07;;;;;;;9.80;5.53;;;;;;;22.99;52.78;101045.88;20917867;28;20159;-76
2022/10/18 20:55:08;;;;;;;8.70;5.18;;;;;;;22.95;52.69;101039.13;20912247;27;20044;-75
2022/10/18 21:05:08;;;;;;;8.32;5.47;;;;;;;22.95;53.07;101039.13;20903202;28;20040;-75
2022/10/18 21:15:11;;;;;;;10.18;5.97;;;;;;;22.91;53.00;101037.69;20906233;28;20056;-75
2022/10/18 21:25:13;;;;;;;;;;;;;;;22.90;53.13;101033.34;20896403;28;20067;-75
2022/10/18 21:35:13;;;;;;;8.10;5.95;;;;;;;22.88;53.03;101024.72;20893505;28;19931;-76
2022/10/18 21:45:14;;;;;;;10.10;5.88;;;;;;;22.86;52.93;101019.53;20909065;28;20041;-76
2022/10/18 21:55:14;;;;;;;8.93;6.50;;;;;;;22.84;53.03;100989.78;20907085;27;20422;-75
2022/10/18 22:05:15;;;;;;;8.95;6.28;;;;;;;22.82;52.98;100974.03;20907590;28;20499;-75
2022/10/18 22:15:15;;;;;;;7.93;5.90;;;;;;;22.81;53.05;100977.66;20906802;28;20375;-75
2022/10/18 22:25:15;;;;;;;8.18;6.13;;;;;;;22.79;53.13;100973.41;20898531;28;20077;-75
2022/10/18 22:35:16;;;;;;;10.20;6.35;;;;;;;22.78;52.87;100971.75;20894183;27;20412;-76
2022/10/18 22:45:17;;;;;;;9.02;6.53;;;;;;;22.75;53.19;100959.59;20887941;28;20098;-75
2022/10/18 22:55:17;;;;;;;8.30;6.43;;;;;;;22.75;53.19;100974.63;20885790;28;20052;-76
2022/10/18 23:05:18;;;;;;;11.75;6.63;;;;;;;22.74;53.20;100971.16;20895380;28;20137;-76
2022/10/18 23:15:18;;;;;;;11.55;6.82;;;;;;;22.70;53.56;100959.13;20890797;28;20377;-75
2022/10/18 23:25:19;;;;;;;9.05;6.30;;;;;;;22.71;53.01;100953.72;20919247;28;20048;-76
2022/10/18 23:35:19;;;;;;;8.95;6.30;;;;;;;22.70;53.13;100953.84;20907971;28;21114;-75
2022/10/18 23:45:19;;;;;;;9.95;6.32;;;;;;;22.70;53.14;100938.84;20929418;28;20135;-75
2022/10/18 23:55:20;;;;;;;10.48;6.53;;;;;;;22.69;53.38;100931.03;20905731;27;20116;-76
